createdAt,value
2022-08-20T00:00:32.912Z,10.20
2022-08-20T00:03:25.617Z,10.77
2022-08-20T00:05:58.925Z,10.20
2022-08-20T00:08:28.576Z,10.30
2022-08-20T00:10:57.786Z,11.18
2022-08-20T00:13:36.971Z,9.68
2022-08-20T00:16:08.587Z,10.60
2022-08-20T00:18:39.102Z,10.82
2022-08-20T00:21:26.757Z,10.88
2022-08-20T00:23:59.770Z,11.60
2022-08-20T00:26:30.511Z,10.52
2022-08-20T00:29:11.370Z,9.77
2022-08-20T00:31:52.069Z,10.13
2022-08-20T00:34:21.309Z,10.80
2022-08-20T00:36:51.300Z,9.85
2022-08-20T00:39:32.627Z,9.80
2022-08-20T00:42:02.891Z,10.48
2022-08-20T00:44:31.966Z,8.98
2022-08-20T00:47:01.757Z,10.38
2022-08-20T00:49:33.207Z,10.77
2022-08-20T00:52:10.207Z,9.68
2022-08-20T00:54:56.385Z,9.90
2022-08-20T00:57:58.936Z,10.75
2022-08-20T01:00:41.872Z,10.15
2022-08-20T01:03:10.928Z,9.63
2022-08-20T01:05:40.362Z,10.30
2022-08-20T01:08:08.673Z,10.57
2022-08-20T01:10:38.694Z,11.32
2022-08-20T01:13:12.397Z,10.32
2022-08-20T01:15:43.446Z,10.07
2022-08-20T01:18:16.590Z,10.80
2022-08-20T01:20:47.672Z,9.75
2022-08-20T01:23:34.455Z,9.82
2022-08-20T01:26:17.375Z,12.43
2022-08-20T01:28:57.027Z,11.32
2022-08-20T01:31:27.502Z,11.18
2022-08-20T01:33:56.871Z,11.32
2022-08-20T01:36:32.757Z,11.48
2022-08-20T01:39:02.188Z,11.93
2022-08-20T01:41:42.554Z,11.40
2022-08-20T01:44:11.225Z,11.32
2022-08-20T01:46:45.804Z,10.65
2022-08-20T01:49:22.827Z,10.93
2022-08-20T01:51:52.908Z,11.68
2022-08-20T01:54:21.817Z,12.30
2022-08-20T01:57:20.794Z,12.23
2022-08-20T01:59:49.717Z,10.68
2022-08-20T02:02:17.977Z,11.48
2022-08-20T02:04:46.671Z,11.12
2022-08-20T02:07:17.089Z,11.18
2022-08-20T02:09:45.313Z,11.63
2022-08-20T02:12:15.630Z,11.57
2022-08-20T02:14:45.220Z,13.40
2022-08-20T02:17:14.929Z,11.88
2022-08-20T02:19:50.392Z,11.35
2022-08-20T02:22:49.203Z,12.70
2022-08-20T02:25:19.066Z,11.20
2022-08-20T02:27:48.324Z,10.10
2022-08-20T02:30:27.714Z,11.32
2022-08-20T02:32:57.892Z,10.90
2022-08-20T02:35:26.354Z,11.60
2022-08-20T02:37:55.264Z,11.38
2022-08-20T02:40:27.248Z,11.40
2022-08-20T02:43:00.469Z,12.13
2022-08-20T02:45:29.281Z,11.00
2022-08-20T02:47:58.640Z,11.30
2022-08-20T02:50:27.766Z,11.50
2022-08-20T02:52:56.156Z,11.38
2022-08-20T02:55:27.877Z,12.98
2022-08-20T02:58:00.926Z,12.18
2022-08-20T03:00:37.834Z,12.07
2022-08-20T03:03:08.502Z,12.18
2022-08-20T03:05:38.718Z,11.82
2022-08-20T03:08:08.385Z,12.00
2022-08-20T03:10:37.651Z,11.93
2022-08-20T03:13:06.569Z,11.50
2022-08-20T03:15:35.187Z,12.02
2022-08-20T03:18:05.253Z,11.98
2022-08-20T03:20:33.891Z,12.05
2022-08-20T03:23:02.534Z,13.00
2022-08-20T03:25:30.642Z,13.43
2022-08-20T03:27:59.225Z,11.82
2022-08-20T03:30:28.705Z,12.52
2022-08-20T03:32:57.463Z,13.48
2022-08-20T03:35:26.985Z,13.32
2022-08-20T03:37:56.531Z,13.18
2022-08-20T03:40:27.175Z,13.75
2022-08-20T03:42:55.546Z,13.82
2022-08-20T03:45:24.637Z,13.75
2022-08-20T03:47:54.697Z,15.00
2022-08-20T03:50:26.574Z,14.55
2022-08-20T03:52:55.347Z,14.68
2022-08-20T03:55:23.789Z,14.73
2022-08-20T03:57:58.327Z,15.13
2022-08-20T04:00:44.993Z,17.85
2022-08-20T04:03:13.002Z,13.75
2022-08-20T04:05:43.064Z,15.10
2022-08-20T04:08:19.769Z,14.68
2022-08-20T04:10:48.571Z,14.95
2022-08-20T04:13:17.311Z,14.30
2022-08-20T04:15:46.828Z,14.57
2022-08-20T04:18:21.571Z,14.50
2022-08-20T04:20:50.063Z,15.40
2022-08-20T04:23:18.275Z,15.60
2022-08-20T04:25:46.994Z,15.82
2022-08-20T04:28:17.765Z,16.52
2022-08-20T04:30:51.687Z,15.07
2022-08-20T04:33:33.473Z,15.73
2022-08-20T04:36:04.124Z,17.52
2022-08-20T04:38:47.817Z,16.33
2022-08-20T04:41:23.223Z,15.13
2022-08-20T04:43:52.408Z,15.43
2022-08-20T04:46:20.915Z,16.17
2022-08-20T04:48:50.309Z,18.75
2022-08-20T04:51:23.246Z,16.45
2022-08-20T04:53:53.517Z,14.85
2022-08-20T04:56:27.416Z,18.62
2022-08-20T04:58:56.829Z,17.80
2022-08-20T05:01:27.580Z,16.42
2022-08-20T05:03:56.417Z,16.62
2022-08-20T05:06:28.772Z,16.80
2022-08-20T05:08:59.643Z,17.95
2022-08-20T05:11:34.519Z,17.25
2022-08-20T05:14:08.120Z,16.92
2022-08-20T05:16:40.738Z,15.05
2022-08-20T05:19:10.867Z,15.63
2022-08-20T05:21:39.491Z,17.12
2022-08-20T05:24:08.719Z,15.38
2022-08-20T05:26:37.703Z,15.10
2022-08-20T05:29:06.668Z,16.05
2022-08-20T05:31:35.998Z,15.40
2022-08-20T05:34:11.754Z,16.45
2022-08-20T05:36:49.217Z,15.90
2022-08-20T05:39:19.842Z,15.65
2022-08-20T05:41:49.006Z,15.77
2022-08-20T05:44:18.383Z,16.87
2022-08-20T05:46:52.005Z,14.82
2022-08-20T05:49:22.057Z,15.10
2022-08-20T05:51:53.934Z,15.35
2022-08-20T05:54:23.557Z,16.23
2022-08-20T05:56:52.752Z,14.98
2022-08-20T05:59:24.161Z,15.43
2022-08-20T06:01:52.938Z,16.92
2022-08-20T06:04:28.492Z,15.02
2022-08-20T06:07:04.682Z,14.63
2022-08-20T06:09:33.829Z,15.00
2022-08-20T06:14:53.162Z,13.85
2022-08-20T06:17:22.281Z,14.82
2022-08-20T06:19:50.910Z,14.43
2022-08-20T06:22:26.783Z,15.23
2022-08-20T06:24:56.132Z,13.73
2022-08-20T06:27:24.791Z,15.10
2022-08-20T06:29:58.320Z,13.93
2022-08-20T06:32:32.732Z,12.15
2022-08-20T06:35:03.845Z,10.90
2022-08-20T06:37:33.340Z,12.35
2022-08-20T06:40:07.805Z,13.65
2022-08-20T06:42:36.614Z,11.73
2022-08-20T06:45:06.869Z,12.52
2022-08-20T06:47:35.545Z,12.15
2022-08-20T06:50:03.933Z,11.18
2022-08-20T06:52:51.881Z,11.12
2022-08-20T06:55:21.508Z,11.52
2022-08-20T06:57:57.105Z,10.95
2022-08-20T07:00:26.035Z,11.65
2022-08-20T07:02:54.532Z,12.07
2022-08-20T07:05:22.754Z,12.63
2022-08-20T07:07:53.973Z,11.93
2022-08-20T07:10:23.663Z,11.63
2022-08-20T07:12:52.220Z,12.85
2022-08-20T07:15:21.559Z,12.45
2022-08-20T07:18:01.379Z,11.15
2022-08-20T07:20:29.973Z,11.75
2022-08-20T07:22:59.189Z,10.65
2022-08-20T07:25:27.984Z,9.63
2022-08-20T07:28:03.695Z,11.30
2022-08-20T07:30:56.105Z,10.07
2022-08-20T07:33:28.266Z,9.30
2022-08-20T07:35:57.946Z,10.35
2022-08-20T07:38:26.426Z,9.35
2022-08-20T07:40:56.176Z,8.90
2022-08-20T07:43:27.073Z,10.27
2022-08-20T07:45:56.989Z,10.02
2022-08-20T07:48:32.705Z,8.55
2022-08-20T07:51:02.449Z,8.38
2022-08-20T07:53:35.218Z,8.20
2022-08-20T07:56:07.380Z,9.32
2022-08-20T07:58:37.115Z,9.25
2022-08-20T08:01:07.105Z,9.85
2022-08-20T08:03:39.415Z,9.65
2022-08-20T08:06:28.412Z,10.27
2022-08-20T08:09:17.529Z,9.90
2022-08-20T08:12:01.225Z,8.98
2022-08-20T08:14:30.612Z,9.70
2022-08-20T08:17:00.140Z,9.18
2022-08-20T08:19:30.245Z,9.05
2022-08-20T08:21:58.809Z,9.50
2022-08-20T08:24:28.572Z,9.73
2022-08-20T08:26:57.633Z,10.27
2022-08-20T08:29:25.789Z,10.63
2022-08-20T08:31:54.153Z,9.23
2022-08-20T08:34:22.175Z,9.10
2022-08-20T08:36:52.148Z,8.20
2022-08-20T08:39:20.871Z,9.38
2022-08-20T08:41:51.013Z,9.40
2022-08-20T08:44:24.891Z,8.77
2022-08-20T08:47:01.728Z,7.75
2022-08-20T08:49:37.941Z,7.93
2022-08-20T08:52:30.083Z,8.98
2022-08-20T08:55:07.741Z,7.87
2022-08-20T08:57:36.426Z,9.15
2022-08-20T09:00:12.306Z,8.10
2022-08-20T09:02:41.326Z,7.45
2022-08-20T09:05:18.381Z,8.07
2022-08-20T09:07:48.451Z,7.85
2022-08-20T09:10:18.156Z,5.97
2022-08-20T09:12:52.099Z,5.32
2022-08-20T09:15:20.668Z,5.22
2022-08-20T09:17:49.226Z,7.62
2022-08-20T09:20:17.309Z,4.30
2022-08-20T09:22:45.473Z,4.20
2022-08-20T09:25:13.846Z,4.30
2022-08-20T09:27:42.886Z,3.85
2022-08-20T09:30:15.641Z,3.12
2022-08-20T09:32:47.480Z,3.30
2022-08-20T09:35:16.762Z,3.20
2022-08-20T09:37:45.246Z,3.40
2022-08-20T09:40:21.417Z,2.75
2022-08-20T09:42:50.089Z,3.25
2022-08-20T09:45:18.196Z,2.45
2022-08-20T09:47:55.051Z,3.25
2022-08-20T09:50:28.955Z,3.08
2022-08-20T09:52:57.812Z,4.62
2022-08-20T09:55:35.906Z,3.60
2022-08-20T09:58:06.738Z,4.40
2022-08-20T10:00:35.205Z,3.80
2022-08-20T10:03:04.732Z,3.20
2022-08-20T10:05:33.044Z,3.58
2022-08-20T10:08:01.260Z,3.47
2022-08-20T10:10:29.596Z,3.40
2022-08-20T10:12:57.480Z,3.28
2022-08-20T10:15:26.010Z,2.60
2022-08-20T10:17:54.277Z,2.30
2022-08-20T10:20:22.724Z,2.20
2022-08-20T10:22:50.706Z,2.00
2022-08-20T10:25:19.154Z,1.58
2022-08-20T10:27:47.159Z,1.73
2022-08-20T10:30:15.891Z,1.77
2022-08-20T10:32:43.949Z,1.50
2022-08-20T10:35:12.171Z,1.40
2022-08-20T10:37:40.648Z,1.10
2022-08-20T10:40:09.513Z,1.45
2022-08-20T10:42:41.949Z,1.40
2022-08-20T10:45:12.371Z,1.48
2022-08-20T10:47:40.646Z,1.40
2022-08-20T10:50:12.526Z,2.15
2022-08-20T10:52:40.834Z,2.10
2022-08-20T10:55:10.137Z,1.75
2022-08-20T10:57:39.480Z,1.67
2022-08-20T11:00:12.323Z,1.35
2022-08-20T11:02:40.738Z,0.90
2022-08-20T11:05:09.829Z,1.05
2022-08-20T11:07:50.476Z,0.75
2022-08-20T11:10:26.115Z,0.80
2022-08-20T11:12:55.622Z,0.40
2022-08-20T11:15:23.657Z,0.60
2022-08-20T11:17:52.091Z,0.50
2022-08-20T11:20:21.328Z,0.60
2022-08-20T11:22:49.660Z,0.88
2022-08-20T11:25:18.054Z,0.68
2022-08-20T11:27:47.602Z,0.62
2022-08-20T11:30:31.200Z,0.50
2022-08-20T11:33:00.013Z,0.60
2022-08-20T11:35:48.899Z,0.95
2022-08-20T11:38:18.637Z,0.60
2022-08-20T11:40:47.963Z,2.03
2022-08-20T11:43:17.811Z,0.95
2022-08-20T11:45:51.422Z,0.73
2022-08-20T11:48:19.971Z,0.60
2022-08-20T11:50:48.367Z,0.85
2022-08-20T11:53:16.883Z,0.70
2022-08-20T11:55:45.136Z,1.08
2022-08-20T11:58:13.553Z,0.93
2022-08-20T12:00:42.012Z,0.80
2022-08-20T12:03:11.651Z,0.70
2022-08-20T12:05:41.313Z,0.75
2022-08-20T12:08:10.709Z,0.70
2022-08-20T12:10:55.246Z,0.80
2022-08-20T12:13:30.422Z,0.70
2022-08-20T12:16:11.453Z,0.75
2022-08-20T12:18:40.406Z,1.62
2022-08-20T12:21:08.627Z,0.98
2022-08-20T12:23:37.004Z,1.00
2022-08-20T12:26:05.296Z,0.77
2022-08-20T12:28:33.630Z,0.82
2022-08-20T12:31:01.797Z,0.80
2022-08-20T12:33:30.639Z,1.10
2022-08-20T12:35:58.884Z,0.70
2022-08-20T12:38:27.106Z,0.70
2022-08-20T12:40:55.124Z,0.70
2022-08-20T12:43:25.242Z,3.03
2022-08-20T12:45:53.764Z,0.75
2022-08-20T12:48:22.228Z,1.00
2022-08-20T12:50:51.361Z,1.10
2022-08-20T12:53:20.043Z,0.70
2022-08-20T12:55:48.228Z,0.77
2022-08-20T12:58:16.212Z,1.10
2022-08-20T13:00:47.478Z,0.80
2022-08-20T13:03:19.465Z,1.37
2022-08-20T13:05:47.527Z,0.60
2022-08-20T13:08:16.110Z,1.67
2022-08-20T13:10:46.554Z,1.45
2022-08-20T13:13:15.553Z,1.20
2022-08-20T13:15:48.614Z,0.68
2022-08-20T13:18:16.997Z,0.60
2022-08-20T13:20:45.227Z,0.82
2022-08-20T13:23:13.286Z,1.50
2022-08-20T13:25:41.386Z,1.23
2022-08-20T13:28:09.490Z,0.80
2022-08-20T13:30:39.933Z,0.60
2022-08-20T13:33:08.290Z,0.60
2022-08-20T13:35:36.250Z,1.33
2022-08-20T13:38:04.344Z,1.45
2022-08-20T13:40:32.477Z,0.50
2022-08-20T13:43:06.459Z,1.00
2022-08-20T13:45:35.208Z,0.57
2022-08-20T13:48:03.523Z,0.60
2022-08-20T13:50:32.789Z,0.82
2022-08-20T13:53:00.766Z,0.85
2022-08-20T13:55:30.810Z,1.70
2022-08-20T13:57:59.928Z,3.85
2022-08-20T14:00:32.495Z,1.00
2022-08-20T14:03:04.342Z,1.37
2022-08-20T14:05:32.678Z,1.45
2022-08-20T14:08:18.026Z,0.60
2022-08-20T14:10:46.169Z,0.70
2022-08-20T14:13:22.490Z,0.90
2022-08-20T14:15:54.773Z,0.50
2022-08-20T14:18:23.015Z,1.58
2022-08-20T14:20:51.943Z,0.45
2022-08-20T14:23:20.128Z,0.62
2022-08-20T14:25:48.547Z,1.70
2022-08-20T14:28:21.599Z,0.50
2022-08-20T14:30:52.939Z,0.90
2022-08-20T14:33:22.341Z,0.45
2022-08-20T14:35:50.500Z,1.35
2022-08-20T14:38:18.687Z,0.40
2022-08-20T14:40:46.640Z,1.10
2022-08-20T14:43:14.736Z,1.37
2022-08-20T14:45:43.089Z,1.20
2022-08-20T14:48:11.662Z,0.73
2022-08-20T14:50:41.257Z,1.23
2022-08-20T14:53:10.903Z,0.75
2022-08-20T14:55:39.171Z,0.93
2022-08-20T14:58:10.953Z,0.73
2022-08-20T15:00:39.096Z,0.90
2022-08-20T15:03:07.427Z,0.60
2022-08-20T15:05:39.557Z,0.60
2022-08-20T15:08:08.227Z,0.85
2022-08-20T15:10:38.604Z,0.40
2022-08-20T15:13:07.053Z,2.03
2022-08-20T15:15:36.228Z,0.77
2022-08-20T15:18:05.271Z,0.62
2022-08-20T15:20:34.084Z,2.72
2022-08-20T15:23:02.461Z,0.50
2022-08-20T15:25:36.950Z,0.80
2022-08-20T15:28:05.946Z,0.93
2022-08-20T15:30:35.497Z,0.60
2022-08-20T15:33:03.592Z,0.88
2022-08-20T15:35:31.669Z,1.30
2022-08-20T15:38:00.346Z,1.25
2022-08-20T15:40:30.211Z,0.60
2022-08-20T15:43:00.756Z,0.82
2022-08-20T15:45:28.965Z,0.60
2022-08-20T15:48:16.977Z,2.05
2022-08-20T15:51:01.958Z,1.73
2022-08-20T15:53:41.331Z,0.60
2022-08-20T15:56:17.724Z,2.58
2022-08-20T15:59:08.788Z,1.20
2022-08-20T16:01:41.088Z,0.70
2022-08-20T16:04:38.389Z,0.90
2022-08-20T16:07:11.209Z,1.37
2022-08-20T16:09:54.493Z,1.08
2022-08-20T16:12:36.163Z,1.15
2022-08-20T16:15:13.559Z,1.65
2022-08-20T16:17:50.700Z,1.48
2022-08-20T16:20:36.602Z,0.82
2022-08-20T16:23:06.049Z,2.35
2022-08-20T16:26:12.818Z,1.02
2022-08-20T16:29:05.431Z,1.15
2022-08-20T16:31:54.986Z,0.82
2022-08-20T16:34:34.883Z,1.67
2022-08-20T16:37:31.725Z,8.95
2022-08-20T16:40:26.358Z,65.95
2022-08-20T16:42:55.650Z,16.33
2022-08-20T16:45:34.023Z,36.38
2022-08-20T16:48:06.140Z,6.40
2022-08-20T16:50:52.530Z,5.05
2022-08-20T16:53:22.018Z,9.07
2022-08-20T16:55:50.681Z,5.50
2022-08-20T16:58:19.398Z,3.17
2022-08-20T17:00:47.908Z,2.15
2022-08-20T17:03:31.334Z,1.12
2022-08-20T17:06:28.613Z,2.22
2022-08-20T17:08:56.667Z,0.80
2022-08-20T17:11:32.188Z,1.33
2022-08-20T17:14:19.327Z,1.42
2022-08-20T17:16:52.232Z,1.62
2022-08-20T17:19:29.085Z,0.95
2022-08-20T17:21:57.414Z,2.70
2022-08-20T17:24:32.305Z,0.80
2022-08-20T17:27:04.132Z,4.22
2022-08-20T17:29:52.991Z,2.25
2022-08-20T17:32:25.500Z,1.50
2022-08-20T17:34:55.396Z,1.87
2022-08-20T17:37:25.989Z,1.20
2022-08-20T17:39:56.153Z,0.70
2022-08-20T17:42:26.008Z,0.73
2022-08-20T17:45:13.781Z,0.82
2022-08-20T17:47:41.534Z,0.80
2022-08-20T17:50:13.455Z,0.70
2022-08-20T17:52:46.767Z,1.33
2022-08-20T17:55:14.951Z,1.15
2022-08-20T17:57:45.404Z,1.15
2022-08-20T18:00:16.762Z,0.90
2022-08-20T18:02:44.633Z,2.55
2022-08-20T18:05:17.845Z,1.00
2022-08-20T18:08:14.771Z,0.50
2022-08-20T18:10:54.060Z,0.75
2022-08-20T18:13:26.000Z,1.77
2022-08-20T18:15:58.464Z,1.12
2022-08-20T18:18:56.606Z,1.75
2022-08-20T18:22:00.469Z,1.95
2022-08-20T18:24:42.323Z,1.12
2022-08-20T18:27:14.185Z,3.05
2022-08-20T18:29:43.689Z,1.45
2022-08-20T18:32:28.544Z,1.50
2022-08-20T18:34:56.442Z,1.67
2022-08-20T18:37:26.565Z,1.77
2022-08-20T18:39:54.489Z,4.95
2022-08-20T18:42:36.455Z,1.30
2022-08-20T18:45:05.071Z,1.15
2022-08-20T18:47:36.893Z,1.30
2022-08-20T18:50:16.043Z,1.48
2022-08-20T18:52:50.202Z,1.80
2022-08-20T18:55:41.897Z,1.40
2022-08-20T18:58:16.298Z,1.48
2022-08-20T19:00:49.237Z,1.23
2022-08-20T19:03:35.849Z,1.80
2022-08-20T19:06:34.550Z,5.00
2022-08-20T19:09:26.883Z,2.25
2022-08-20T19:12:10.455Z,3.72
2022-08-20T19:15:07.507Z,1.30
2022-08-20T19:17:38.408Z,1.10
2022-08-20T19:20:10.424Z,1.55
2022-08-20T19:22:39.622Z,4.50
2022-08-20T19:25:08.152Z,1.67
2022-08-20T19:27:35.922Z,1.92
2022-08-20T19:30:03.747Z,1.77
2022-08-20T19:32:33.018Z,1.27
2022-08-20T19:35:02.604Z,1.40
2022-08-20T19:37:40.064Z,1.20
2022-08-20T19:40:39.143Z,1.30
2022-08-20T19:43:12.114Z,1.10
2022-08-20T19:45:42.127Z,1.00
2022-08-20T19:48:42.524Z,1.48
2022-08-20T19:51:13.542Z,2.35
2022-08-20T19:53:49.393Z,1.50
2022-08-20T19:56:22.244Z,1.40
2022-08-20T19:59:05.683Z,1.35
2022-08-20T20:01:33.529Z,1.40
2022-08-20T20:04:06.606Z,2.45
2022-08-20T20:06:39.100Z,1.25
2022-08-20T20:09:09.600Z,1.50
2022-08-20T20:11:39.058Z,1.23
2022-08-20T20:14:09.464Z,2.78
2022-08-20T20:16:37.515Z,1.73
2022-08-20T20:19:27.436Z,1.40
2022-08-20T20:22:07.572Z,1.95
2022-08-20T20:24:48.391Z,1.20
2022-08-20T20:27:22.339Z,1.77
2022-08-20T20:29:50.225Z,3.03
2022-08-20T20:32:21.145Z,1.62
2022-08-20T20:35:00.296Z,1.60
2022-08-20T20:37:37.959Z,1.50
2022-08-20T20:40:25.463Z,2.35
2022-08-20T20:43:05.274Z,4.35
2022-08-20T20:45:42.067Z,2.10
2022-08-20T20:48:22.409Z,2.37
2022-08-20T20:50:50.300Z,1.35
2022-08-20T20:53:32.318Z,2.33
2022-08-20T20:56:39.775Z,3.70
2022-08-20T20:59:08.352Z,4.30
2022-08-20T21:01:49.642Z,2.85
2022-08-20T21:04:22.396Z,1.73
2022-08-20T21:06:50.987Z,1.33
2022-08-20T21:09:19.809Z,3.58
2022-08-20T21:11:47.686Z,2.53
2022-08-20T21:14:15.953Z,1.98
2022-08-20T21:16:44.110Z,1.48
2022-08-20T21:19:12.399Z,2.95
2022-08-20T21:21:40.360Z,2.97
2022-08-20T21:24:08.447Z,10.23
2022-08-20T21:26:37.413Z,3.08
2022-08-20T21:29:06.555Z,1.50
2022-08-20T21:31:43.976Z,2.22
2022-08-20T21:34:13.032Z,1.23
2022-08-20T21:36:41.064Z,1.23
2022-08-20T21:39:09.069Z,1.40
2022-08-20T21:41:37.384Z,2.25
2022-08-20T21:44:22.523Z,2.67
2022-08-20T21:46:53.033Z,1.67
2022-08-20T21:49:21.195Z,1.67
2022-08-20T21:51:49.504Z,1.23
2022-08-20T21:54:17.514Z,1.62
2022-08-20T21:56:53.298Z,2.85
2022-08-20T21:59:22.108Z,2.53
2022-08-20T22:01:50.064Z,2.08
2022-08-20T22:04:18.041Z,1.70
2022-08-20T22:06:45.913Z,4.72
2022-08-20T22:09:14.580Z,2.80
2022-08-20T22:11:42.541Z,2.67
2022-08-20T22:14:10.980Z,1.98
2022-08-20T22:16:38.935Z,2.55
2022-08-20T22:19:16.168Z,3.00
2022-08-20T22:21:44.424Z,2.53
2022-08-20T22:24:12.665Z,1.45
2022-08-20T22:26:41.319Z,1.33
2022-08-20T22:29:09.944Z,2.55
2022-08-20T22:31:38.833Z,2.10
2022-08-20T22:34:06.710Z,1.98
2022-08-20T22:36:34.716Z,3.28
2022-08-20T22:39:02.552Z,1.80
2022-08-20T22:41:30.436Z,1.40
2022-08-20T22:43:58.366Z,2.90
2022-08-20T22:46:28.209Z,1.20
2022-08-20T22:48:56.531Z,1.50
2022-08-20T22:51:34.703Z,3.53
2022-08-20T22:54:04.568Z,3.35
2022-08-20T22:56:32.894Z,1.58
2022-08-20T22:59:03.349Z,1.37
2022-08-20T23:01:38.536Z,1.85
2022-08-20T23:04:11.142Z,1.92
2022-08-20T23:06:39.010Z,1.23
2022-08-20T23:09:06.933Z,2.87
2022-08-20T23:11:34.826Z,1.70
2022-08-20T23:14:02.824Z,1.73
2022-08-20T23:16:30.631Z,2.10
2022-08-20T23:18:58.922Z,1.70
2022-08-20T23:21:27.687Z,2.35
2022-08-20T23:23:55.784Z,1.50
2022-08-20T23:26:23.891Z,1.40
2022-08-20T23:28:52.031Z,1.92
2022-08-20T23:31:20.394Z,2.72
2022-08-20T23:33:48.342Z,1.95
2022-08-20T23:36:16.879Z,1.60
2022-08-20T23:38:44.791Z,3.15
2022-08-20T23:41:12.636Z,3.17
2022-08-20T23:43:40.468Z,2.55
2022-08-20T23:46:09.640Z,1.75
2022-08-20T23:48:37.956Z,1.50
2022-08-20T23:51:06.470Z,5.03
2022-08-20T23:53:34.297Z,2.78
2022-08-20T23:56:02.092Z,4.10
2022-08-20T23:58:29.904Z,1.58
